sensor_id;sensor_type;location;lat;lon;timestamp;P1;durP1;ratioP1;P2;durP2;ratioP2
71207;SDS011;58938;49.868;8.646;2023-06-22T00:00:41;17.23;;;8.30;;
71207;SDS011;58938;49.868;8.646;2023-06-22T00:03:07;11.87;;;7.67;;
71207;SDS011;58938;49.868;8.646;2023-06-22T00:05:33;11.68;;;8.00;;
71207;SDS011;58938;49.868;8.646;2023-06-22T00:08:02;10.98;;;7.60;;
71207;SDS011;58938;49.868;8.646;2023-06-22T00:10:28;13.05;;;8.10;;
71207;SDS011;58938;49.868;8.646;2023-06-22T00:12:54;13.27;;;7.55;;
71207;SDS011;58938;49.868;8.646;2023-06-22T00:15:20;12.00;;;7.43;;
71207;SDS011;58938;49.868;8.646;2023-06-22T00:17:46;11.82;;;7.38;;
71207;SDS011;58938;49.868;8.646;2023-06-22T00:20:12;11.50;;;7.72;;
71207;SDS011;58938;49.868;8.646;2023-06-22T00:22:39;12.02;;;7.45;;
71207;SDS011;58938;49.868;8.646;2023-06-22T00:25:08;11.80;;;7.70;;
71207;SDS011;58938;49.868;8.646;2023-06-22T00:27:35;10.73;;;7.10;;
71207;SDS011;58938;49.868;8.646;2023-06-22T00:30:01;13.05;;;7.55;;
71207;SDS011;58938;49.868;8.646;2023-06-22T00:32:27;12.52;;;7.50;;
71207;SDS011;58938;49.868;8.646;2023-06-22T00:34:53;11.52;;;8.07;;
71207;SDS011;58938;49.868;8.646;2023-06-22T00:37:19;11.53;;;7.63;;
71207;SDS011;58938;49.868;8.646;2023-06-22T00:39:51;12.30;;;7.53;;
71207;SDS011;58938;49.868;8.646;2023-06-22T00:42:17;11.15;;;7.88;;
71207;SDS011;58938;49.868;8.646;2023-06-22T00:44:43;14.60;;;8.50;;
71207;SDS011;58938;49.868;8.646;2023-06-22T00:47:10;13.82;;;9.05;;
71207;SDS011;58938;49.868;8.646;2023-06-22T00:49:38;14.30;;;8.17;;
71207;SDS011;58938;49.868;8.646;2023-06-22T00:52:04;13.73;;;8.73;;
71207;SDS011;58938;49.868;8.646;2023-06-22T00:54:34;16.55;;;9.85;;
71207;SDS011;58938;49.868;8.646;2023-06-22T00:57:01;13.95;;;8.85;;
71207;SDS011;58938;49.868;8.646;2023-06-22T00:59:27;14.57;;;9.65;;
71207;SDS011;58938;49.868;8.646;2023-06-22T01:01:54;14.20;;;9.53;;
71207;SDS011;58938;49.868;8.646;2023-06-22T01:04:23;16.38;;;9.38;;
71207;SDS011;58938;49.868;8.646;2023-06-22T01:09:43;12.95;;;8.90;;
71207;SDS011;58938;49.868;8.646;2023-06-22T01:12:10;14.15;;;9.23;;
71207;SDS011;58938;49.868;8.646;2023-06-22T01:14:43;13.43;;;9.77;;
71207;SDS011;58938;49.868;8.646;2023-06-22T01:17:12;12.68;;;8.60;;
71207;SDS011;58938;49.868;8.646;2023-06-22T01:19:45;14.75;;;10.35;;
71207;SDS011;58938;49.868;8.646;2023-06-22T01:22:21;14.70;;;9.25;;
71207;SDS011;58938;49.868;8.646;2023-06-22T01:25:04;14.63;;;9.98;;
71207;SDS011;58938;49.868;8.646;2023-06-22T01:30:10;12.30;;;8.75;;
71207;SDS011;58938;49.868;8.646;2023-06-22T01:32:37;13.60;;;9.23;;
71207;SDS011;58938;49.868;8.646;2023-06-22T01:35:05;14.10;;;9.63;;
71207;SDS011;58938;49.868;8.646;2023-06-22T01:37:32;14.52;;;9.82;;
71207;SDS011;58938;49.868;8.646;2023-06-22T01:39:59;13.70;;;9.20;;
71207;SDS011;58938;49.868;8.646;2023-06-22T01:42:26;16.88;;;9.90;;
71207;SDS011;58938;49.868;8.646;2023-06-22T01:44:53;16.83;;;10.23;;
71207;SDS011;58938;49.868;8.646;2023-06-22T01:47:22;15.57;;;10.05;;
71207;SDS011;58938;49.868;8.646;2023-06-22T01:49:49;15.50;;;10.02;;
71207;SDS011;58938;49.868;8.646;2023-06-22T01:52:18;14.80;;;10.27;;
71207;SDS011;58938;49.868;8.646;2023-06-22T01:54:46;14.73;;;9.30;;
71207;SDS011;58938;49.868;8.646;2023-06-22T01:57:12;15.30;;;9.43;;
71207;SDS011;58938;49.868;8.646;2023-06-22T02:02:09;21.45;;;10.52;;
71207;SDS011;58938;49.868;8.646;2023-06-22T02:04:46;16.03;;;10.60;;
71207;SDS011;58938;49.868;8.646;2023-06-22T02:07:14;16.40;;;10.48;;
71207;SDS011;58938;49.868;8.646;2023-06-22T02:09:42;15.10;;;10.02;;
71207;SDS011;58938;49.868;8.646;2023-06-22T02:12:10;16.75;;;10.18;;
71207;SDS011;58938;49.868;8.646;2023-06-22T02:14:37;16.92;;;10.40;;
71207;SDS011;58938;49.868;8.646;2023-06-22T02:17:03;16.00;;;10.43;;
71207;SDS011;58938;49.868;8.646;2023-06-22T02:19:32;16.92;;;10.10;;
71207;SDS011;58938;49.868;8.646;2023-06-22T02:22:01;16.30;;;10.40;;
71207;SDS011;58938;49.868;8.646;2023-06-22T02:24:27;14.98;;;10.52;;
71207;SDS011;58938;49.868;8.646;2023-06-22T02:26:55;14.00;;;9.88;;
71207;SDS011;58938;49.868;8.646;2023-06-22T02:29:22;18.53;;;10.27;;
71207;SDS011;58938;49.868;8.646;2023-06-22T02:31:48;18.27;;;10.65;;
71207;SDS011;58938;49.868;8.646;2023-06-22T02:34:14;15.65;;;9.27;;
71207;SDS011;58938;49.868;8.646;2023-06-22T02:36:43;16.10;;;10.50;;
71207;SDS011;58938;49.868;8.646;2023-06-22T02:39:15;14.55;;;9.50;;
71207;SDS011;58938;49.868;8.646;2023-06-22T02:41:41;14.30;;;9.57;;
71207;SDS011;58938;49.868;8.646;2023-06-22T02:44:07;18.17;;;10.32;;
71207;SDS011;58938;49.868;8.646;2023-06-22T02:46:33;13.93;;;9.55;;
71207;SDS011;58938;49.868;8.646;2023-06-22T02:48:59;13.85;;;9.50;;
71207;SDS011;58938;49.868;8.646;2023-06-22T02:51:25;15.63;;;9.80;;
71207;SDS011;58938;49.868;8.646;2023-06-22T02:53:51;14.82;;;9.63;;
71207;SDS011;58938;49.868;8.646;2023-06-22T02:56:22;14.63;;;9.93;;
71207;SDS011;58938;49.868;8.646;2023-06-22T02:58:50;16.92;;;10.60;;
71207;SDS011;58938;49.868;8.646;2023-06-22T03:01:16;14.80;;;9.67;;
71207;SDS011;58938;49.868;8.646;2023-06-22T03:03:48;15.00;;;10.15;;
71207;SDS011;58938;49.868;8.646;2023-06-22T03:06:14;16.60;;;10.73;;
71207;SDS011;58938;49.868;8.646;2023-06-22T03:08:41;14.05;;;9.70;;
71207;SDS011;58938;49.868;8.646;2023-06-22T03:11:07;16.25;;;10.10;;
71207;SDS011;58938;49.868;8.646;2023-06-22T03:13:33;14.53;;;10.13;;
71207;SDS011;58938;49.868;8.646;2023-06-22T03:15:59;14.80;;;9.88;;
71207;SDS011;58938;49.868;8.646;2023-06-22T03:18:25;15.52;;;10.38;;
71207;SDS011;58938;49.868;8.646;2023-06-22T03:20:51;15.32;;;10.80;;
71207;SDS011;58938;49.868;8.646;2023-06-22T03:23:17;15.27;;;10.60;;
71207;SDS011;58938;49.868;8.646;2023-06-22T03:25:43;15.88;;;10.77;;
71207;SDS011;58938;49.868;8.646;2023-06-22T03:28:10;16.98;;;11.05;;
71207;SDS011;58938;49.868;8.646;2023-06-22T03:30:35;18.80;;;11.45;;
71207;SDS011;58938;49.868;8.646;2023-06-22T03:33:02;17.53;;;11.50;;
71207;SDS011;58938;49.868;8.646;2023-06-22T03:35:28;14.73;;;10.80;;
71207;SDS011;58938;49.868;8.646;2023-06-22T03:37:54;16.10;;;10.20;;
71207;SDS011;58938;49.868;8.646;2023-06-22T03:40:20;16.40;;;10.45;;
71207;SDS011;58938;49.868;8.646;2023-06-22T03:42:46;16.17;;;10.82;;
71207;SDS011;58938;49.868;8.646;2023-06-22T03:45:12;15.83;;;10.40;;
71207;SDS011;58938;49.868;8.646;2023-06-22T03:47:38;15.38;;;10.13;;
71207;SDS011;58938;49.868;8.646;2023-06-22T03:50:04;16.35;;;11.15;;
71207;SDS011;58938;49.868;8.646;2023-06-22T03:52:31;15.30;;;9.90;;
71207;SDS011;58938;49.868;8.646;2023-06-22T03:54:57;14.55;;;10.15;;
71207;SDS011;58938;49.868;8.646;2023-06-22T03:57:23;17.03;;;10.77;;
71207;SDS011;58938;49.868;8.646;2023-06-22T03:59:49;18.02;;;11.43;;
71207;SDS011;58938;49.868;8.646;2023-06-22T04:02:15;15.65;;;10.93;;
71207;SDS011;58938;49.868;8.646;2023-06-22T04:04:41;14.82;;;10.88;;
71207;SDS011;58938;49.868;8.646;2023-06-22T04:07:07;16.93;;;11.30;;
71207;SDS011;58938;49.868;8.646;2023-06-22T04:09:33;15.00;;;10.18;;
71207;SDS011;58938;49.868;8.646;2023-06-22T04:12:01;17.17;;;11.05;;
71207;SDS011;58938;49.868;8.646;2023-06-22T04:14:27;16.65;;;10.50;;
71207;SDS011;58938;49.868;8.646;2023-06-22T04:16:53;15.93;;;10.60;;
71207;SDS011;58938;49.868;8.646;2023-06-22T04:19:19;17.00;;;10.80;;
71207;SDS011;58938;49.868;8.646;2023-06-22T04:21:45;15.77;;;10.60;;
71207;SDS011;58938;49.868;8.646;2023-06-22T04:24:13;15.57;;;10.15;;
71207;SDS011;58938;49.868;8.646;2023-06-22T04:26:39;16.00;;;10.90;;
71207;SDS011;58938;49.868;8.646;2023-06-22T04:29:06;17.27;;;11.50;;
71207;SDS011;58938;49.868;8.646;2023-06-22T04:31:33;15.95;;;11.20;;
71207;SDS011;58938;49.868;8.646;2023-06-22T04:34:01;14.77;;;10.90;;
71207;SDS011;58938;49.868;8.646;2023-06-22T04:36:35;19.02;;;11.45;;
71207;SDS011;58938;49.868;8.646;2023-06-22T04:39:05;19.75;;;12.05;;
71207;SDS011;58938;49.868;8.646;2023-06-22T04:41:31;16.03;;;11.43;;
71207;SDS011;58938;49.868;8.646;2023-06-22T04:44:07;15.52;;;10.88;;
71207;SDS011;58938;49.868;8.646;2023-06-22T04:46:34;17.15;;;11.23;;
71207;SDS011;58938;49.868;8.646;2023-06-22T04:49:03;18.88;;;11.98;;
71207;SDS011;58938;49.868;8.646;2023-06-22T04:51:31;22.75;;;12.38;;
71207;SDS011;58938;49.868;8.646;2023-06-22T04:53:57;16.90;;;10.90;;
71207;SDS011;58938;49.868;8.646;2023-06-22T04:56:26;19.17;;;11.75;;
71207;SDS011;58938;49.868;8.646;2023-06-22T04:58:55;19.08;;;11.48;;
71207;SDS011;58938;49.868;8.646;2023-06-22T05:01:22;17.80;;;11.48;;
71207;SDS011;58938;49.868;8.646;2023-06-22T05:03:48;18.45;;;12.90;;
71207;SDS011;58938;49.868;8.646;2023-06-22T05:06:14;18.13;;;11.83;;
71207;SDS011;58938;49.868;8.646;2023-06-22T05:08:40;18.40;;;11.52;;
71207;SDS011;58938;49.868;8.646;2023-06-22T05:11:06;17.30;;;12.48;;
71207;SDS011;58938;49.868;8.646;2023-06-22T05:13:32;17.30;;;11.82;;
71207;SDS011;58938;49.868;8.646;2023-06-22T05:15:58;17.83;;;11.85;;
71207;SDS011;58938;49.868;8.646;2023-06-22T05:18:30;17.97;;;12.07;;
71207;SDS011;58938;49.868;8.646;2023-06-22T05:20:57;17.42;;;10.77;;
71207;SDS011;58938;49.868;8.646;2023-06-22T05:23:23;16.63;;;11.38;;
71207;SDS011;58938;49.868;8.646;2023-06-22T05:25:49;20.67;;;11.77;;
71207;SDS011;58938;49.868;8.646;2023-06-22T05:28:15;16.73;;;11.17;;
71207;SDS011;58938;49.868;8.646;2023-06-22T05:30:41;16.27;;;11.82;;
71207;SDS011;58938;49.868;8.646;2023-06-22T05:33:07;18.27;;;11.82;;
71207;SDS011;58938;49.868;8.646;2023-06-22T05:35:33;17.00;;;11.57;;
71207;SDS011;58938;49.868;8.646;2023-06-22T05:37:59;17.13;;;11.27;;
71207;SDS011;58938;49.868;8.646;2023-06-22T05:40:25;17.35;;;11.65;;
71207;SDS011;58938;49.868;8.646;2023-06-22T05:42:52;17.02;;;11.32;;
71207;SDS011;58938;49.868;8.646;2023-06-22T05:45:18;16.25;;;11.13;;
71207;SDS011;58938;49.868;8.646;2023-06-22T05:47:44;16.20;;;11.87;;
71207;SDS011;58938;49.868;8.646;2023-06-22T05:50:10;15.10;;;10.60;;
71207;SDS011;58938;49.868;8.646;2023-06-22T05:52:36;16.65;;;10.93;;
71207;SDS011;58938;49.868;8.646;2023-06-22T05:55:02;17.02;;;10.68;;
71207;SDS011;58938;49.868;8.646;2023-06-22T05:57:28;18.20;;;10.10;;
71207;SDS011;58938;49.868;8.646;2023-06-22T05:59:54;15.27;;;10.27;;
71207;SDS011;58938;49.868;8.646;2023-06-22T06:02:20;16.60;;;10.90;;
71207;SDS011;58938;49.868;8.646;2023-06-22T06:04:46;15.20;;;10.27;;
71207;SDS011;58938;49.868;8.646;2023-06-22T06:07:12;15.90;;;10.57;;
71207;SDS011;58938;49.868;8.646;2023-06-22T06:09:38;16.30;;;10.27;;
71207;SDS011;58938;49.868;8.646;2023-06-22T06:12:04;13.70;;;9.93;;
71207;SDS011;58938;49.868;8.646;2023-06-22T06:14:30;15.50;;;11.10;;
71207;SDS011;58938;49.868;8.646;2023-06-22T06:16:56;13.83;;;10.03;;
71207;SDS011;58938;49.868;8.646;2023-06-22T06:19:22;16.90;;;10.43;;
71207;SDS011;58938;49.868;8.646;2023-06-22T06:21:48;16.85;;;10.60;;
71207;SDS011;58938;49.868;8.646;2023-06-22T06:24:14;14.05;;;10.13;;
71207;SDS011;58938;49.868;8.646;2023-06-22T06:26:40;16.07;;;10.57;;
71207;SDS011;58938;49.868;8.646;2023-06-22T06:29:06;23.15;;;10.68;;
71207;SDS011;58938;49.868;8.646;2023-06-22T06:31:32;15.98;;;9.82;;
71207;SDS011;58938;49.868;8.646;2023-06-22T06:33:58;15.43;;;9.70;;
71207;SDS011;58938;49.868;8.646;2023-06-22T06:36:24;15.23;;;10.60;;
71207;SDS011;58938;49.868;8.646;2023-06-22T06:38:50;15.15;;;10.23;;
71207;SDS011;58938;49.868;8.646;2023-06-22T06:41:16;17.63;;;10.65;;
71207;SDS011;58938;49.868;8.646;2023-06-22T06:43:42;14.30;;;10.07;;
71207;SDS011;58938;49.868;8.646;2023-06-22T06:46:08;16.00;;;10.65;;
71207;SDS011;58938;49.868;8.646;2023-06-22T06:48:34;15.73;;;11.30;;
71207;SDS011;58938;49.868;8.646;2023-06-22T06:51:00;15.75;;;10.80;;
71207;SDS011;58938;49.868;8.646;2023-06-22T06:53:26;16.27;;;10.23;;
71207;SDS011;58938;49.868;8.646;2023-06-22T06:55:53;14.63;;;9.93;;
71207;SDS011;58938;49.868;8.646;2023-06-22T06:58:19;15.32;;;10.32;;
71207;SDS011;58938;49.868;8.646;2023-06-22T07:00:45;16.13;;;10.67;;
71207;SDS011;58938;49.868;8.646;2023-06-22T07:03:11;14.75;;;10.05;;
71207;SDS011;58938;49.868;8.646;2023-06-22T07:05:37;16.33;;;10.32;;
71207;SDS011;58938;49.868;8.646;2023-06-22T07:08:03;16.90;;;11.07;;
71207;SDS011;58938;49.868;8.646;2023-06-22T07:10:29;15.30;;;11.10;;
71207;SDS011;58938;49.868;8.646;2023-06-22T07:12:55;14.90;;;9.40;;
71207;SDS011;58938;49.868;8.646;2023-06-22T07:15:22;16.75;;;10.75;;
71207;SDS011;58938;49.868;8.646;2023-06-22T07:17:48;15.00;;;10.15;;
71207;SDS011;58938;49.868;8.646;2023-06-22T07:20:14;14.83;;;9.77;;
71207;SDS011;58938;49.868;8.646;2023-06-22T07:22:40;13.25;;;9.48;;
71207;SDS011;58938;49.868;8.646;2023-06-22T07:25:07;14.20;;;10.30;;
71207;SDS011;58938;49.868;8.646;2023-06-22T07:27:39;14.30;;;10.32;;
71207;SDS011;58938;49.868;8.646;2023-06-22T07:30:08;15.52;;;10.27;;
71207;SDS011;58938;49.868;8.646;2023-06-22T07:32:34;14.60;;;10.20;;
71207;SDS011;58938;49.868;8.646;2023-06-22T07:35:00;14.48;;;10.35;;
71207;SDS011;58938;49.868;8.646;2023-06-22T07:37:27;16.98;;;10.60;;
71207;SDS011;58938;49.868;8.646;2023-06-22T07:39:53;14.85;;;10.35;;
71207;SDS011;58938;49.868;8.646;2023-06-22T07:42:23;20.27;;;11.02;;
71207;SDS011;58938;49.868;8.646;2023-06-22T07:44:49;15.93;;;10.53;;
71207;SDS011;58938;49.868;8.646;2023-06-22T07:47:16;14.57;;;10.27;;
71207;SDS011;58938;49.868;8.646;2023-06-22T07:49:44;15.70;;;10.60;;
71207;SDS011;58938;49.868;8.646;2023-06-22T07:52:10;14.15;;;9.68;;
71207;SDS011;58938;49.868;8.646;2023-06-22T07:54:36;18.27;;;10.23;;
71207;SDS011;58938;49.868;8.646;2023-06-22T07:57:02;15.90;;;10.77;;
71207;SDS011;58938;49.868;8.646;2023-06-22T07:59:28;14.95;;;10.45;;
71207;SDS011;58938;49.868;8.646;2023-06-22T08:01:54;16.50;;;10.52;;
71207;SDS011;58938;49.868;8.646;2023-06-22T08:04:20;16.00;;;10.85;;
71207;SDS011;58938;49.868;8.646;2023-06-22T08:06:46;15.13;;;10.80;;
71207;SDS011;58938;49.868;8.646;2023-06-22T08:09:12;15.52;;;10.65;;
71207;SDS011;58938;49.868;8.646;2023-06-22T08:11:38;15.88;;;10.95;;
71207;SDS011;58938;49.868;8.646;2023-06-22T08:14:04;16.27;;;10.15;;
71207;SDS011;58938;49.868;8.646;2023-06-22T08:16:30;14.97;;;10.83;;
71207;SDS011;58938;49.868;8.646;2023-06-22T08:18:56;15.85;;;10.60;;
71207;SDS011;58938;49.868;8.646;2023-06-22T08:21:22;14.88;;;10.45;;
71207;SDS011;58938;49.868;8.646;2023-06-22T08:23:48;14.50;;;10.75;;
71207;SDS011;58938;49.868;8.646;2023-06-22T08:26:14;15.70;;;10.67;;
71207;SDS011;58938;49.868;8.646;2023-06-22T08:28:40;15.75;;;10.52;;
71207;SDS011;58938;49.868;8.646;2023-06-22T08:31:06;14.50;;;10.40;;
71207;SDS011;58938;49.868;8.646;2023-06-22T08:33:33;14.02;;;10.23;;
71207;SDS011;58938;49.868;8.646;2023-06-22T08:35:59;14.73;;;9.80;;
71207;SDS011;58938;49.868;8.646;2023-06-22T08:38:25;12.30;;;9.35;;
71207;SDS011;58938;49.868;8.646;2023-06-22T08:40:52;13.82;;;10.15;;
71207;SDS011;58938;49.868;8.646;2023-06-22T08:43:18;15.50;;;10.55;;
71207;SDS011;58938;49.868;8.646;2023-06-22T08:45:44;14.98;;;10.00;;
71207;SDS011;58938;49.868;8.646;2023-06-22T08:48:10;14.30;;;10.13;;
71207;SDS011;58938;49.868;8.646;2023-06-22T08:50:36;15.70;;;9.57;;
71207;SDS011;58938;49.868;8.646;2023-06-22T08:53:03;13.32;;;8.68;;
71207;SDS011;58938;49.868;8.646;2023-06-22T08:55:29;14.55;;;9.73;;
71207;SDS011;58938;49.868;8.646;2023-06-22T08:57:55;13.57;;;9.00;;
71207;SDS011;58938;49.868;8.646;2023-06-22T09:00:21;14.30;;;9.07;;
71207;SDS011;58938;49.868;8.646;2023-06-22T09:02:47;13.43;;;9.32;;
71207;SDS011;58938;49.868;8.646;2023-06-22T09:05:13;13.45;;;8.80;;
71207;SDS011;58938;49.868;8.646;2023-06-22T09:07:43;13.50;;;9.30;;
71207;SDS011;58938;49.868;8.646;2023-06-22T09:10:10;12.02;;;8.70;;
71207;SDS011;58938;49.868;8.646;2023-06-22T09:12:36;13.23;;;8.87;;
71207;SDS011;58938;49.868;8.646;2023-06-22T09:15:03;12.85;;;8.68;;
71207;SDS011;58938;49.868;8.646;2023-06-22T09:17:29;11.60;;;8.52;;
71207;SDS011;58938;49.868;8.646;2023-06-22T09:19:55;11.63;;;8.15;;
71207;SDS011;58938;49.868;8.646;2023-06-22T09:22:21;11.15;;;8.38;;
71207;SDS011;58938;49.868;8.646;2023-06-22T09:24:48;13.43;;;8.60;;
71207;SDS011;58938;49.868;8.646;2023-06-22T09:27:14;13.95;;;9.38;;
71207;SDS011;58938;49.868;8.646;2023-06-22T09:29:40;12.35;;;8.60;;
71207;SDS011;58938;49.868;8.646;2023-06-22T09:32:06;12.85;;;8.05;;
71207;SDS011;58938;49.868;8.646;2023-06-22T09:34:32;14.15;;;9.00;;
71207;SDS011;58938;49.868;8.646;2023-06-22T09:36:58;12.63;;;8.57;;
71207;SDS011;58938;49.868;8.646;2023-06-22T09:39:25;11.27;;;8.52;;
71207;SDS011;58938;49.868;8.646;2023-06-22T09:41:51;14.85;;;8.43;;
71207;SDS011;58938;49.868;8.646;2023-06-22T09:44:19;11.45;;;8.13;;
71207;SDS011;58938;49.868;8.646;2023-06-22T09:46:45;12.77;;;8.68;;
71207;SDS011;58938;49.868;8.646;2023-06-22T09:49:11;12.47;;;8.00;;
71207;SDS011;58938;49.868;8.646;2023-06-22T09:51:37;18.92;;;8.30;;
71207;SDS011;58938;49.868;8.646;2023-06-22T09:54:03;13.05;;;8.85;;
71207;SDS011;58938;49.868;8.646;2023-06-22T09:56:29;13.45;;;7.97;;
71207;SDS011;58938;49.868;8.646;2023-06-22T09:58:55;10.63;;;8.30;;
71207;SDS011;58938;49.868;8.646;2023-06-22T10:01:21;14.47;;;9.23;;
71207;SDS011;58938;49.868;8.646;2023-06-22T10:03:48;13.18;;;8.35;;
71207;SDS011;58938;49.868;8.646;2023-06-22T10:06:15;13.07;;;8.95;;
71207;SDS011;58938;49.868;8.646;2023-06-22T10:08:41;12.25;;;8.57;;
71207;SDS011;58938;49.868;8.646;2023-06-22T10:11:07;17.05;;;9.50;;
71207;SDS011;58938;49.868;8.646;2023-06-22T10:13:33;11.57;;;9.10;;
71207;SDS011;58938;49.868;8.646;2023-06-22T10:15:59;12.88;;;8.60;;
71207;SDS011;58938;49.868;8.646;2023-06-22T10:18:25;12.00;;;8.10;;
71207;SDS011;58938;49.868;8.646;2023-06-22T10:20:51;11.82;;;9.07;;
71207;SDS011;58938;49.868;8.646;2023-06-22T10:23:18;11.85;;;8.75;;
71207;SDS011;58938;49.868;8.646;2023-06-22T10:25:45;13.10;;;8.50;;
71207;SDS011;58938;49.868;8.646;2023-06-22T10:28:12;13.23;;;8.18;;
71207;SDS011;58938;49.868;8.646;2023-06-22T10:30:39;13.05;;;8.90;;
71207;SDS011;58938;49.868;8.646;2023-06-22T10:33:08;14.98;;;8.10;;
71207;SDS011;58938;49.868;8.646;2023-06-22T10:35:34;15.60;;;8.70;;
71207;SDS011;58938;49.868;8.646;2023-06-22T10:38:02;14.27;;;7.43;;
71207;SDS011;58938;49.868;8.646;2023-06-22T10:40:28;11.90;;;8.43;;
71207;SDS011;58938;49.868;8.646;2023-06-22T10:42:55;12.73;;;8.60;;
71207;SDS011;58938;49.868;8.646;2023-06-22T10:45:21;13.02;;;8.05;;
71207;SDS011;58938;49.868;8.646;2023-06-22T10:47:47;10.93;;;8.35;;
71207;SDS011;58938;49.868;8.646;2023-06-22T10:50:13;10.90;;;7.90;;
71207;SDS011;58938;49.868;8.646;2023-06-22T10:52:39;35.75;;;15.43;;
71207;SDS011;58938;49.868;8.646;2023-06-22T10:55:07;15.93;;;9.32;;
71207;SDS011;58938;49.868;8.646;2023-06-22T10:57:33;13.18;;;8.43;;
71207;SDS011;58938;49.868;8.646;2023-06-22T10:59:59;14.98;;;8.70;;
71207;SDS011;58938;49.868;8.646;2023-06-22T11:02:26;12.87;;;8.23;;
71207;SDS011;58938;49.868;8.646;2023-06-22T11:04:53;11.70;;;8.10;;
71207;SDS011;58938;49.868;8.646;2023-06-22T11:07:19;11.73;;;8.40;;
71207;SDS011;58938;49.868;8.646;2023-06-22T11:09:45;15.57;;;8.50;;
71207;SDS011;58938;49.868;8.646;2023-06-22T11:12:11;14.80;;;8.60;;
71207;SDS011;58938;49.868;8.646;2023-06-22T11:14:38;15.50;;;9.00;;
71207;SDS011;58938;49.868;8.646;2023-06-22T11:17:05;11.23;;;8.30;;
71207;SDS011;58938;49.868;8.646;2023-06-22T11:19:31;34.85;;;15.77;;
71207;SDS011;58938;49.868;8.646;2023-06-22T11:22:02;13.48;;;8.57;;
71207;SDS011;58938;49.868;8.646;2023-06-22T11:24:28;12.20;;;8.70;;
71207;SDS011;58938;49.868;8.646;2023-06-22T11:26:57;12.17;;;9.00;;
71207;SDS011;58938;49.868;8.646;2023-06-22T11:29:26;16.05;;;9.02;;
71207;SDS011;58938;49.868;8.646;2023-06-22T11:31:52;12.98;;;8.77;;
71207;SDS011;58938;49.868;8.646;2023-06-22T11:34:18;15.27;;;8.57;;
71207;SDS011;58938;49.868;8.646;2023-06-22T11:36:45;15.70;;;9.38;;
71207;SDS011;58938;49.868;8.646;2023-06-22T11:39:13;14.20;;;8.97;;
71207;SDS011;58938;49.868;8.646;2023-06-22T11:41:40;13.57;;;8.73;;
71207;SDS011;58938;49.868;8.646;2023-06-22T11:44:06;15.05;;;8.48;;
71207;SDS011;58938;49.868;8.646;2023-06-22T11:46:33;13.23;;;8.52;;
71207;SDS011;58938;49.868;8.646;2023-06-22T11:48:59;14.02;;;7.88;;
71207;SDS011;58938;49.868;8.646;2023-06-22T11:51:26;14.00;;;7.97;;
71207;SDS011;58938;49.868;8.646;2023-06-22T11:53:56;15.02;;;9.00;;
71207;SDS011;58938;49.868;8.646;2023-06-22T11:56:23;15.10;;;8.27;;
71207;SDS011;58938;49.868;8.646;2023-06-22T11:58:50;17.33;;;8.50;;
71207;SDS011;58938;49.868;8.646;2023-06-22T12:01:19;13.90;;;8.27;;
71207;SDS011;58938;49.868;8.646;2023-06-22T12:03:46;16.00;;;8.43;;
71207;SDS011;58938;49.868;8.646;2023-06-22T12:06:13;13.32;;;8.27;;
71207;SDS011;58938;49.868;8.646;2023-06-22T12:08:42;13.15;;;8.20;;
71207;SDS011;58938;49.868;8.646;2023-06-22T12:11:14;17.60;;;8.00;;
71207;SDS011;58938;49.868;8.646;2023-06-22T12:13:44;13.57;;;9.35;;
71207;SDS011;58938;49.868;8.646;2023-06-22T12:16:16;14.57;;;8.53;;
71207;SDS011;58938;49.868;8.646;2023-06-22T12:18:42;12.77;;;8.25;;
71207;SDS011;58938;49.868;8.646;2023-06-22T12:21:08;13.95;;;9.13;;
71207;SDS011;58938;49.868;8.646;2023-06-22T12:23:34;12.30;;;7.82;;
71207;SDS011;58938;49.868;8.646;2023-06-22T12:26:00;15.85;;;8.25;;
71207;SDS011;58938;49.868;8.646;2023-06-22T12:28:27;14.77;;;8.60;;
71207;SDS011;58938;49.868;8.646;2023-06-22T12:30:52;12.48;;;7.85;;
71207;SDS011;58938;49.868;8.646;2023-06-22T12:33:18;11.43;;;7.55;;
71207;SDS011;58938;49.868;8.646;2023-06-22T12:35:45;14.85;;;8.35;;
71207;SDS011;58938;49.868;8.646;2023-06-22T12:38:13;12.82;;;8.57;;
71207;SDS011;58938;49.868;8.646;2023-06-22T12:40:39;13.77;;;8.00;;
71207;SDS011;58938;49.868;8.646;2023-06-22T12:43:05;14.00;;;8.07;;
71207;SDS011;58938;49.868;8.646;2023-06-22T12:45:32;12.85;;;7.78;;
71207;SDS011;58938;49.868;8.646;2023-06-22T12:47:59;13.38;;;7.95;;
71207;SDS011;58938;49.868;8.646;2023-06-22T12:50:25;18.38;;;8.70;;
71207;SDS011;58938;49.868;8.646;2023-06-22T12:52:51;15.20;;;8.27;;
71207;SDS011;58938;49.868;8.646;2023-06-22T12:55:17;17.25;;;8.73;;
71207;SDS011;58938;49.868;8.646;2023-06-22T12:57:43;24.67;;;13.70;;
71207;SDS011;58938;49.868;8.646;2023-06-22T13:00:10;13.15;;;8.85;;
71207;SDS011;58938;49.868;8.646;2023-06-22T13:02:36;16.27;;;7.77;;
71207;SDS011;58938;49.868;8.646;2023-06-22T13:05:02;13.25;;;7.68;;
71207;SDS011;58938;49.868;8.646;2023-06-22T13:07:30;14.80;;;8.85;;
71207;SDS011;58938;49.868;8.646;2023-06-22T13:09:56;11.70;;;8.48;;
71207;SDS011;58938;49.868;8.646;2023-06-22T13:12:22;17.00;;;8.77;;
71207;SDS011;58938;49.868;8.646;2023-06-22T13:14:48;14.73;;;7.80;;
71207;SDS011;58938;49.868;8.646;2023-06-22T13:17:14;12.57;;;7.40;;
71207;SDS011;58938;49.868;8.646;2023-06-22T13:19:41;17.08;;;7.40;;
71207;SDS011;58938;49.868;8.646;2023-06-22T13:22:26;17.58;;;6.60;;
71207;SDS011;58938;49.868;8.646;2023-06-22T13:24:54;13.93;;;6.35;;
71207;SDS011;58938;49.868;8.646;2023-06-22T13:27:20;15.27;;;6.20;;
71207;SDS011;58938;49.868;8.646;2023-06-22T13:29:46;14.00;;;6.53;;
71207;SDS011;58938;49.868;8.646;2023-06-22T13:32:12;11.93;;;6.25;;
71207;SDS011;58938;49.868;8.646;2023-06-22T13:34:38;13.35;;;6.18;;
71207;SDS011;58938;49.868;8.646;2023-06-22T13:37:04;13.55;;;5.82;;
71207;SDS011;58938;49.868;8.646;2023-06-22T13:39:30;11.87;;;6.20;;
71207;SDS011;58938;49.868;8.646;2023-06-22T13:41:57;13.88;;;6.00;;
71207;SDS011;58938;49.868;8.646;2023-06-22T13:44:23;16.77;;;6.57;;
71207;SDS011;58938;49.868;8.646;2023-06-22T13:46:53;12.88;;;5.80;;
71207;SDS011;58938;49.868;8.646;2023-06-22T13:49:19;13.63;;;6.73;;
71207;SDS011;58938;49.868;8.646;2023-06-22T13:51:46;14.47;;;6.17;;
71207;SDS011;58938;49.868;8.646;2023-06-22T13:54:16;14.18;;;6.43;;
71207;SDS011;58938;49.868;8.646;2023-06-22T13:56:42;14.18;;;5.88;;
71207;SDS011;58938;49.868;8.646;2023-06-22T13:59:11;11.30;;;5.75;;
71207;SDS011;58938;49.868;8.646;2023-06-22T14:01:37;12.57;;;5.32;;
71207;SDS011;58938;49.868;8.646;2023-06-22T14:04:05;12.50;;;5.97;;
71207;SDS011;58938;49.868;8.646;2023-06-22T14:06:31;13.38;;;5.60;;
71207;SDS011;58938;49.868;8.646;2023-06-22T14:08:57;12.25;;;5.88;;
71207;SDS011;58938;49.868;8.646;2023-06-22T14:11:24;12.30;;;5.97;;
71207;SDS011;58938;49.868;8.646;2023-06-22T14:13:50;11.57;;;6.25;;
71207;SDS011;58938;49.868;8.646;2023-06-22T14:16:16;13.30;;;6.00;;
71207;SDS011;58938;49.868;8.646;2023-06-22T14:18:42;14.65;;;5.70;;
71207;SDS011;58938;49.868;8.646;2023-06-22T14:21:08;14.23;;;5.90;;
71207;SDS011;58938;49.868;8.646;2023-06-22T14:23:34;13.18;;;5.30;;
71207;SDS011;58938;49.868;8.646;2023-06-22T14:26:00;11.57;;;5.07;;
71207;SDS011;58938;49.868;8.646;2023-06-22T14:28:26;10.10;;;5.40;;
71207;SDS011;58938;49.868;8.646;2023-06-22T14:30:52;15.23;;;5.05;;
71207;SDS011;58938;49.868;8.646;2023-06-22T14:33:19;10.52;;;4.85;;